sensor_id;sensor_type;location;lat;lon;timestamp;temperature;humidity
20315;DHT22;10315;50.958;13.080;2022-10-23T00:03:38;11.60;99.90
20315;DHT22;10315;50.958;13.080;2022-10-23T00:13:40;11.50;99.90
20315;DHT22;10315;50.958;13.080;2022-10-23T00:23:44;11.20;99.90
20315;DHT22;10315;50.958;13.080;2022-10-23T00:33:46;11.10;99.90
20315;DHT22;10315;50.958;13.080;2022-10-23T00:43:59;11.10;99.90
20315;DHT22;10315;50.958;13.080;2022-10-23T00:54:02;11.10;99.90
20315;DHT22;10315;50.958;13.080;2022-10-23T01:04:07;11.20;99.90
20315;DHT22;10315;50.958;13.080;2022-10-23T01:14:15;11.10;99.90
20315;DHT22;10315;50.958;13.080;2022-10-23T01:24:29;11.00;99.90
20315;DHT22;10315;50.958;13.080;2022-10-23T01:34:42;11.00;99.90
20315;DHT22;10315;50.958;13.080;2022-10-23T01:44:46;10.80;99.90
20315;DHT22;10315;50.958;13.080;2022-10-23T01:54:53;10.90;99.90
20315;DHT22;10315;50.958;13.080;2022-10-23T02:04:57;10.80;99.90
20315;DHT22;10315;50.958;13.080;2022-10-23T02:15:07;10.80;99.90
20315;DHT22;10315;50.958;13.080;2022-10-23T02:25:14;10.90;99.90
20315;DHT22;10315;50.958;13.080;2022-10-23T02:35:20;10.90;99.90
20315;DHT22;10315;50.958;13.080;2022-10-23T02:45:28;10.80;99.90
20315;DHT22;10315;50.958;13.080;2022-10-23T02:55:42;10.90;99.90
20315;DHT22;10315;50.958;13.080;2022-10-23T03:05:45;10.70;99.90
20315;DHT22;10315;50.958;13.080;2022-10-23T03:15:48;10.60;99.90
20315;DHT22;10315;50.958;13.080;2022-10-23T03:25:51;10.60;99.90
20315;DHT22;10315;50.958;13.080;2022-10-23T03:35:54;10.50;99.90
20315;DHT22;10315;50.958;13.080;2022-10-23T03:45:55;10.50;99.90
20315;DHT22;10315;50.958;13.080;2022-10-23T03:55:59;10.50;99.90
20315;DHT22;10315;50.958;13.080;2022-10-23T04:06:00;10.20;99.90
20315;DHT22;10315;50.958;13.080;2022-10-23T04:16:04;10.40;99.90
20315;DHT22;10315;50.958;13.080;2022-10-23T04:26:05;10.20;99.90
20315;DHT22;10315;50.958;13.080;2022-10-23T04:36:09;9.70;99.90
20315;DHT22;10315;50.958;13.080;2022-10-23T04:46:11;9.70;99.90
20315;DHT22;10315;50.958;13.080;2022-10-23T04:56:14;9.90;99.90
20315;DHT22;10315;50.958;13.080;2022-10-23T05:06:16;10.00;99.90
20315;DHT22;10315;50.958;13.080;2022-10-23T05:16:27;10.00;99.90
20315;DHT22;10315;50.958;13.080;2022-10-23T05:26:31;9.80;99.90
20315;DHT22;10315;50.958;13.080;2022-10-23T05:36:35;9.80;99.90
20315;DHT22;10315;50.958;13.080;2022-10-23T05:46:39;10.00;99.90
20315;DHT22;10315;50.958;13.080;2022-10-23T05:56:42;10.10;99.90
20315;DHT22;10315;50.958;13.080;2022-10-23T06:06:44;10.10;99.90
20315;DHT22;10315;50.958;13.080;2022-10-23T06:16:48;10.20;99.90
20315;DHT22;10315;50.958;13.080;2022-10-23T06:26:49;10.40;99.90
20315;DHT22;10315;50.958;13.080;2022-10-23T06:36:52;10.60;99.90
20315;DHT22;10315;50.958;13.080;2022-10-23T06:46:54;10.80;99.90
20315;DHT22;10315;50.958;13.080;2022-10-23T06:56:57;11.00;99.90
20315;DHT22;10315;50.958;13.080;2022-10-23T07:07:01;11.50;99.90
20315;DHT22;10315;50.958;13.080;2022-10-23T07:17:04;12.50;99.90
20315;DHT22;10315;50.958;13.080;2022-10-23T07:27:06;19.80;99.90
20315;DHT22;10315;50.958;13.080;2022-10-23T07:37:09;22.70;99.90
20315;DHT22;10315;50.958;13.080;2022-10-23T07:47:10;18.20;99.90
20315;DHT22;10315;50.958;13.080;2022-10-23T07:57:13;20.90;99.90
20315;DHT22;10315;50.958;13.080;2022-10-23T08:07:15;21.10;99.90
20315;DHT22;10315;50.958;13.080;2022-10-23T08:17:21;23.40;99.90
20315;DHT22;10315;50.958;13.080;2022-10-23T08:27:23;20.20;99.90
20315;DHT22;10315;50.958;13.080;2022-10-23T08:37:26;18.40;99.90
20315;DHT22;10315;50.958;13.080;2022-10-23T08:47:32;18.40;99.90
20315;DHT22;10315;50.958;13.080;2022-10-23T08:57:42;18.20;99.90
20315;DHT22;10315;50.958;13.080;2022-10-23T09:18:15;18.40;99.90
20315;DHT22;10315;50.958;13.080;2022-10-23T09:28:19;19.40;99.90
20315;DHT22;10315;50.958;13.080;2022-10-23T09:38:29;19.40;99.90
20315;DHT22;10315;50.958;13.080;2022-10-23T09:48:31;18.50;99.90
20315;DHT22;10315;50.958;13.080;2022-10-23T09:58:56;18.70;99.90
20315;DHT22;10315;50.958;13.080;2022-10-23T10:08:59;18.60;99.90
20315;DHT22;10315;50.958;13.080;2022-10-23T10:19:14;18.80;99.90
20315;DHT22;10315;50.958;13.080;2022-10-23T10:29:23;19.00;99.90
20315;DHT22;10315;50.958;13.080;2022-10-23T10:39:39;19.10;99.90
20315;DHT22;10315;50.958;13.080;2022-10-23T10:49:50;19.40;99.90
20315;DHT22;10315;50.958;13.080;2022-10-23T10:59:58;20.20;99.90
20315;DHT22;10315;50.958;13.080;2022-10-23T11:10:03;20.70;99.90
20315;DHT22;10315;50.958;13.080;2022-10-23T11:20:19;20.40;99.90
20315;DHT22;10315;50.958;13.080;2022-10-23T11:30:28;20.50;99.90
20315;DHT22;10315;50.958;13.080;2022-10-23T11:40:33;20.10;99.90
20315;DHT22;10315;50.958;13.080;2022-10-23T11:50:49;19.70;99.90
20315;DHT22;10315;50.958;13.080;2022-10-23T12:01:00;19.60;99.90
20315;DHT22;10315;50.958;13.080;2022-10-23T12:11:03;19.50;99.90
20315;DHT22;10315;50.958;13.080;2022-10-23T12:21:16;19.30;99.90
20315;DHT22;10315;50.958;13.080;2022-10-23T12:31:27;19.00;99.90
20315;DHT22;10315;50.958;13.080;2022-10-23T12:41:37;18.80;99.90
20315;DHT22;10315;50.958;13.080;2022-10-23T12:51:39;18.50;99.90
20315;DHT22;10315;50.958;13.080;2022-10-23T13:01:42;18.60;99.90
20315;DHT22;10315;50.958;13.080;2022-10-23T13:11:44;18.60;99.90
20315;DHT22;10315;50.958;13.080;2022-10-23T13:21:47;18.50;99.90
20315;DHT22;10315;50.958;13.080;2022-10-23T13:31:49;18.60;99.90
20315;DHT22;10315;50.958;13.080;2022-10-23T13:41:52;18.40;99.90
20315;DHT22;10315;50.958;13.080;2022-10-23T13:51:55;18.10;99.90
20315;DHT22;10315;50.958;13.080;2022-10-23T14:01:58;17.80;99.90
20315;DHT22;10315;50.958;13.080;2022-10-23T14:12:00;17.50;99.90
20315;DHT22;10315;50.958;13.080;2022-10-23T14:22:03;17.40;99.90
20315;DHT22;10315;50.958;13.080;2022-10-23T14:32:04;17.30;99.90
20315;DHT22;10315;50.958;13.080;2022-10-23T14:42:07;17.10;99.90
20315;DHT22;10315;50.958;13.080;2022-10-23T14:52:09;16.90;99.90
20315;DHT22;10315;50.958;13.080;2022-10-23T15:02:13;16.60;99.90
20315;DHT22;10315;50.958;13.080;2022-10-23T15:12:14;16.50;99.90
20315;DHT22;10315;50.958;13.080;2022-10-23T15:22:17;16.20;99.90
20315;DHT22;10315;50.958;13.080;2022-10-23T15:32:20;16.10;99.90
20315;DHT22;10315;50.958;13.080;2022-10-23T15:42:23;15.90;99.90
20315;DHT22;10315;50.958;13.080;2022-10-23T15:52:24;15.80;99.90
20315;DHT22;10315;50.958;13.080;2022-10-23T16:02:27;15.70;99.90
20315;DHT22;10315;50.958;13.080;2022-10-23T16:12:29;15.50;99.90
20315;DHT22;10315;50.958;13.080;2022-10-23T16:22:32;15.40;99.90
20315;DHT22;10315;50.958;13.080;2022-10-23T16:32:34;15.40;99.90
20315;DHT22;10315;50.958;13.080;2022-10-23T16:42:38;15.40;99.90
20315;DHT22;10315;50.958;13.080;2022-10-23T16:52:40;15.50;99.90
20315;DHT22;10315;50.958;13.080;2022-10-23T17:02:43;15.40;99.90
20315;DHT22;10315;50.958;13.080;2022-10-23T17:12:45;15.40;99.90
20315;DHT22;10315;50.958;13.080;2022-10-23T17:22:48;15.40;99.90
20315;DHT22;10315;50.958;13.080;2022-10-23T17:32:53;15.10;99.90
20315;DHT22;10315;50.958;13.080;2022-10-23T17:42:56;15.10;99.90
20315;DHT22;10315;50.958;13.080;2022-10-23T17:52:57;15.00;99.90
20315;DHT22;10315;50.958;13.080;2022-10-23T18:03:01;15.00;99.90
20315;DHT22;10315;50.958;13.080;2022-10-23T18:13:03;14.80;99.90
20315;DHT22;10315;50.958;13.080;2022-10-23T18:23:06;14.60;99.90
20315;DHT22;10315;50.958;13.080;2022-10-23T18:33:08;14.80;99.90
20315;DHT22;10315;50.958;13.080;2022-10-23T18:43:11;14.70;99.90
20315;DHT22;10315;50.958;13.080;2022-10-23T18:53:13;14.40;99.90
20315;DHT22;10315;50.958;13.080;2022-10-23T19:03:16;14.20;99.90
20315;DHT22;10315;50.958;13.080;2022-10-23T19:13:18;14.30;99.90
20315;DHT22;10315;50.958;13.080;2022-10-23T19:23:22;14.60;99.90
20315;DHT22;10315;50.958;13.080;2022-10-23T19:33:25;14.90;99.90
20315;DHT22;10315;50.958;13.080;2022-10-23T19:43:28;14.90;99.90
20315;DHT22;10315;50.958;13.080;2022-10-23T19:53:29;15.00;99.90
20315;DHT22;10315;50.958;13.080;2022-10-23T20:03:32;15.10;99.90
20315;DHT22;10315;50.958;13.080;2022-10-23T20:13:34;15.20;99.90
20315;DHT22;10315;50.958;13.080;2022-10-23T20:23:37;15.20;99.90
20315;DHT22;10315;50.958;13.080;2022-10-23T20:33:40;15.10;99.90
20315;DHT22;10315;50.958;13.080;2022-10-23T20:43:43;15.10;99.90
20315;DHT22;10315;50.958;13.080;2022-10-23T20:53:45;15.00;99.90
20315;DHT22;10315;50.958;13.080;2022-10-23T21:03:50;14.60;99.90
20315;DHT22;10315;50.958;13.080;2022-10-23T21:13:53;13.80;99.90
20315;DHT22;10315;50.958;13.080;2022-10-23T21:24:05;13.60;99.90
20315;DHT22;10315;50.958;13.080;2022-10-23T21:34:07;13.30;99.90
20315;DHT22;10315;50.958;13.080;2022-10-23T21:44:11;13.20;99.90
20315;DHT22;10315;50.958;13.080;2022-10-23T21:54:13;13.10;99.90
20315;DHT22;10315;50.958;13.080;2022-10-23T22:04:18;13.00;99.90
20315;DHT22;10315;50.958;13.080;2022-10-23T22:14:20;12.80;99.90
20315;DHT22;10315;50.958;13.080;2022-10-23T22:24:23;12.80;99.90
20315;DHT22;10315;50.958;13.080;2022-10-23T22:34:26;12.80;99.90
20315;DHT22;10315;50.958;13.080;2022-10-23T22:44:29;12.70;99.90
20315;DHT22;10315;50.958;13.080;2022-10-23T22:54:31;12.70;99.90
20315;DHT22;10315;50.958;13.080;2022-10-23T23:04:34;12.80;99.90
20315;DHT22;10315;50.958;13.080;2022-10-23T23:14:36;12.70;99.90
20315;DHT22;10315;50.958;13.080;2022-10-23T23:24:39;12.60;99.90
20315;DHT22;10315;50.958;13.080;2022-10-23T23:34:41;12.50;99.90
20315;DHT22;10315;50.958;13.080;2022-10-23T23:44:44;12.10;99.90
20315;DHT22;10315;50.958;13.080;2022-10-23T23:54:46;11.80;99.90
